Airfield :
LOGIN :

Register | Disclaimer

   EN    FR    IT 

 










Legend :    VFR   Marginal VFR   IFR   Intensive IFR   Very Intensive IFR
Visi :
Ceiling :
>= 8 km
>= 3000ft
5 to 8 km
1000 to 3000 ft
1500m to 5 km
500 to 1000 ft
800 to 1500m
200 to 500 ft
< 800m
< 200 ft
Symbols :   Thunderstorms  Fog  Heavy snow  Heavy precipitations  Wind > 20 kt
SIGMETs :     Misc.  Thunderstorms  Icing  Turbulence  Mountain Waves  Volcanic Ashes







- Airport Elevation : 55 ft
- IATA code : DSA
- Download approach charts


EGCN - Robin Hood Doncaster Sheffield

CURRENT METAR :
  • 170720Z 22015KT 9999 FEW020 12/08 Q1014

EXPIRED METARs :
  • 170650Z 22017KT 9999 FEW021 12/08 Q1014
  • 170620Z 22018KT 9999 FEW022 12/08 Q1014
  • 170550Z 23020KT CAVOK 13/08 Q1013
  • 170520Z 23020KT 9999 FEW039 14/08 Q1013
  • 170450Z 22021KT 9999 FEW038 13/07 Q1013

TAF TAF EGCN
Valid from the 17 at 06:00 until the 18 at 06:00 UTC


170502Z 1706/1806 22020G30KT 9999 SCT040
BECMG 1709/1712 25017G27KT
BECMG 1712/1715 26011KT
BECMG 1720/1723 VRB03KT
TEMPO 1723/1806 8000 -RA
PROB30
TEMPO 1803/1806 RA
No reported NOTAMs for that airfield.
2 SIGMETs reported for the London FIR (EGTT) :
 
Severe turbulence
EGTT SIGMET 04 VALID 170500/170900 EGRR
EGTT LONDON FIR SEV TURB FCST N OF LINE N5230 W00530 - N5230 E00249 SFC/FL060 MOV N 15KT WKN=
Severe mountain waves
EGTT SIGMET 03 VALID 170500/170900 EGRR
EGTT LONDON FIR SEV MTW FCST WI N5220 W00530 - N5500 W00530 - N5500 E00115 - N5316 E00115 - N5124 W00259 - N5158 W00611 - N5220 W00530 FL030/200 MOV N 15KT WKN=



MET'MAP, your aeronautical weather chart ! - Copyright ORBIFLY December 2007 - Disclaimer

ORBIFLY MET'MAP TEAM :

Programming & Development : Alexandra Zaïnal
Concept & Development : Baudouin d'Aumeries
Co-Development & Prog : Marc-Olivier Méhu
Technical & hardware support : Manuel Goepfert

Contact : metmap@orbifly.com




SOURCES & CREDITS :

   NOAA